createdAt,value
2023-04-10T00:02:07.720Z,31.95
2023-04-10T00:04:40.123Z,32.15
2023-04-10T00:07:12.661Z,32.25
2023-04-10T00:09:44.734Z,32.90
2023-04-10T00:12:16.957Z,32.65
2023-04-10T00:14:49.070Z,33.58
2023-04-10T00:17:21.278Z,32.47
2023-04-10T00:19:53.424Z,33.50
2023-04-10T00:22:26.152Z,31.95
2023-04-10T00:24:58.205Z,33.45
2023-04-10T00:27:30.378Z,33.90
2023-04-10T00:30:02.938Z,37.20
2023-04-10T00:32:35.171Z,32.15
2023-04-10T00:35:09.366Z,32.40
2023-04-10T00:37:42.001Z,32.65
2023-04-10T00:40:14.162Z,30.98
2023-04-10T00:42:46.864Z,32.05
2023-04-10T00:45:19.178Z,31.15
2023-04-10T00:47:51.985Z,30.48
2023-04-10T00:50:24.801Z,33.95
2023-04-10T00:52:57.820Z,33.92
2023-04-10T00:55:30.550Z,32.40
2023-04-10T00:58:02.967Z,34.80
2023-04-10T01:00:35.424Z,35.15
2023-04-10T01:03:12.152Z,34.28
2023-04-10T01:05:54.721Z,33.53
2023-04-10T01:08:47.942Z,34.22
2023-04-10T01:11:38.838Z,33.83
2023-04-10T01:14:38.644Z,33.95
2023-04-10T01:17:40.672Z,34.92
2023-04-10T01:20:32.144Z,35.42
2023-04-10T01:23:42.346Z,34.05
2023-04-10T01:26:20.103Z,34.00
2023-04-10T01:29:19.899Z,34.17
2023-04-10T01:32:02.585Z,34.65
2023-04-10T01:34:44.915Z,36.17
2023-04-10T01:37:32.122Z,35.35
2023-04-10T01:40:10.075Z,35.20
2023-04-10T01:42:49.172Z,35.13
2023-04-10T01:45:26.200Z,35.63
2023-04-10T01:47:58.690Z,36.00
2023-04-10T01:50:32.135Z,36.85
2023-04-10T01:53:07.332Z,35.10
2023-04-10T01:55:40.173Z,36.30
2023-04-10T01:58:12.850Z,34.58
2023-04-10T02:00:44.938Z,38.05
2023-04-10T02:03:17.266Z,38.90
2023-04-10T02:06:21.660Z,36.22
2023-04-10T02:09:12.881Z,35.72
2023-04-10T02:12:09.596Z,35.85
2023-04-10T02:14:46.012Z,37.15
2023-04-10T02:17:23.852Z,35.60
2023-04-10T02:20:00.303Z,37.15
2023-04-10T02:22:32.828Z,36.90
2023-04-10T02:25:06.507Z,36.80
2023-04-10T02:27:39.366Z,36.30
2023-04-10T02:30:11.905Z,36.67
2023-04-10T02:32:44.325Z,36.63
2023-04-10T02:35:16.509Z,38.22
2023-04-10T02:37:50.966Z,36.80
2023-04-10T02:40:23.171Z,38.15
2023-04-10T02:42:55.250Z,38.22
2023-04-10T02:45:27.337Z,39.22
2023-04-10T02:48:00.357Z,38.75
2023-04-10T02:50:33.026Z,36.42
2023-04-10T02:53:05.062Z,38.10
2023-04-10T02:55:37.127Z,38.17
2023-04-10T02:58:09.178Z,37.67
2023-04-10T03:00:41.216Z,39.70
2023-04-10T03:03:13.366Z,37.58
2023-04-10T03:05:47.268Z,39.42
2023-04-10T03:08:42.696Z,39.70
2023-04-10T03:11:14.741Z,38.70
2023-04-10T03:13:47.754Z,38.80
2023-04-10T03:16:19.894Z,37.22
2023-04-10T03:18:53.115Z,39.50
2023-04-10T03:21:25.181Z,39.03
2023-04-10T03:23:57.302Z,38.88
2023-04-10T03:26:29.391Z,39.13
2023-04-10T03:29:01.462Z,39.08
2023-04-10T03:31:33.541Z,39.92
2023-04-10T03:34:06.017Z,39.05
2023-04-10T03:36:38.359Z,38.40
2023-04-10T03:39:10.471Z,39.85
2023-04-10T03:41:42.527Z,39.13
2023-04-10T03:44:14.580Z,38.97
2023-04-10T03:46:46.685Z,39.80
2023-04-10T03:49:18.785Z,38.90
2023-04-10T03:51:50.888Z,40.10
2023-04-10T03:54:22.955Z,36.65
2023-04-10T03:56:54.964Z,39.03
2023-04-10T03:59:37.830Z,39.85
2023-04-10T04:02:11.238Z,37.63
2023-04-10T04:04:43.579Z,37.28
2023-04-10T04:07:15.640Z,39.55
2023-04-10T04:09:48.152Z,38.92
2023-04-10T04:12:20.209Z,39.05
2023-04-10T04:14:52.367Z,37.60
2023-04-10T04:17:24.511Z,39.55
2023-04-10T04:19:56.652Z,39.53
2023-04-10T04:22:28.656Z,40.45
2023-04-10T04:25:00.775Z,38.72
2023-04-10T04:27:32.819Z,37.72
2023-04-10T04:30:06.641Z,38.33
2023-04-10T04:32:38.972Z,37.45
2023-04-10T04:35:11.278Z,36.58
2023-04-10T04:37:43.392Z,38.65
2023-04-10T04:40:15.590Z,37.78
2023-04-10T04:42:50.650Z,39.15
2023-04-10T04:45:22.843Z,39.08
2023-04-10T04:47:54.895Z,36.13
2023-04-10T04:50:26.975Z,36.17
2023-04-10T04:53:00.607Z,37.92
2023-04-10T04:55:32.674Z,38.03
2023-04-10T04:58:04.813Z,38.85
2023-04-10T05:00:36.869Z,36.35
2023-04-10T05:03:09.174Z,37.10
2023-04-10T05:05:41.365Z,37.22
2023-04-10T05:08:13.450Z,38.42
2023-04-10T05:10:45.587Z,37.22
2023-04-10T05:13:17.775Z,35.67
2023-04-10T05:15:50.038Z,34.33
2023-04-10T05:18:24.068Z,35.40
2023-04-10T05:20:56.260Z,37.20
2023-04-10T05:23:28.388Z,38.78
2023-04-10T05:26:00.506Z,36.58
2023-04-10T05:28:32.644Z,36.80
2023-04-10T05:31:04.985Z,37.15
2023-04-10T05:33:37.045Z,36.30
2023-04-10T05:36:10.600Z,36.42
2023-04-10T05:38:42.669Z,36.80
2023-04-10T05:41:14.763Z,34.22
2023-04-10T05:43:46.800Z,34.55
2023-04-10T05:46:18.930Z,35.67
2023-04-10T05:48:51.687Z,34.85
2023-04-10T05:51:24.155Z,36.03
2023-04-10T05:53:56.310Z,36.80
2023-04-10T05:56:28.413Z,34.67
2023-04-10T05:59:00.558Z,34.75
2023-04-10T06:01:32.594Z,34.47
2023-04-10T06:04:04.925Z,33.63
2023-04-10T06:06:37.189Z,33.80
2023-04-10T06:09:09.301Z,33.55
2023-04-10T06:11:41.640Z,35.25
2023-04-10T06:14:13.671Z,33.55
2023-04-10T06:16:45.776Z,33.35
2023-04-10T06:19:17.862Z,30.73
2023-04-10T06:21:50.312Z,30.98
2023-04-10T06:24:22.595Z,32.20
2023-04-10T06:26:54.668Z,32.38
2023-04-10T06:29:26.726Z,32.17
2023-04-10T06:31:58.815Z,32.00
2023-04-10T06:34:30.900Z,32.15
2023-04-10T06:37:03.038Z,31.75
2023-04-10T06:39:35.131Z,30.88
2023-04-10T06:42:07.204Z,31.23
2023-04-10T06:44:39.303Z,32.08
2023-04-10T06:47:11.677Z,32.17
2023-04-10T06:49:43.910Z,30.98
2023-04-10T06:52:16.953Z,32.47
2023-04-10T06:54:49.286Z,32.08
2023-04-10T06:57:21.516Z,28.08
2023-04-10T06:59:53.583Z,29.23
2023-04-10T07:02:25.836Z,30.42
2023-04-10T07:04:58.176Z,31.63
2023-04-10T07:07:30.508Z,29.42
2023-04-10T07:10:02.577Z,29.00
2023-04-10T07:12:47.317Z,29.00
2023-04-10T07:15:19.391Z,28.88
2023-04-10T07:17:51.514Z,28.05
2023-04-10T07:20:23.544Z,29.73
2023-04-10T07:22:55.665Z,28.30
2023-04-10T07:25:37.556Z,28.83
2023-04-10T07:28:09.749Z,26.58
2023-04-10T07:30:41.987Z,26.00
2023-04-10T07:33:14.254Z,27.77
2023-04-10T07:35:46.652Z,27.25
2023-04-10T07:38:19.312Z,25.23
2023-04-10T07:40:57.668Z,24.45
2023-04-10T07:43:30.205Z,27.02
2023-04-10T07:46:02.323Z,26.27
2023-04-10T07:48:34.428Z,25.23
2023-04-10T07:51:09.426Z,25.23
2023-04-10T07:53:41.631Z,24.33
2023-04-10T07:56:18.896Z,25.13
2023-04-10T07:58:52.089Z,23.02
2023-04-10T08:01:24.362Z,24.55
2023-04-10T08:03:56.749Z,24.52
2023-04-10T08:06:29.120Z,22.35
2023-04-10T08:09:02.181Z,20.80
2023-04-10T08:11:38.319Z,22.38
2023-04-10T08:14:10.960Z,19.42
2023-04-10T08:16:43.117Z,17.27
2023-04-10T08:19:15.564Z,15.57
2023-04-10T08:21:47.621Z,16.13
2023-04-10T08:24:21.642Z,15.15
2023-04-10T08:26:53.696Z,12.18
2023-04-10T08:29:25.783Z,14.55
2023-04-10T08:32:00.762Z,15.20
2023-04-10T08:34:32.829Z,14.05
2023-04-10T08:37:11.894Z,13.63
2023-04-10T08:39:44.110Z,13.95
2023-04-10T08:42:16.220Z,13.70
2023-04-10T08:44:50.528Z,13.52
2023-04-10T08:47:28.339Z,12.23
2023-04-10T08:50:06.980Z,13.15
2023-04-10T08:52:44.651Z,12.85
2023-04-10T08:55:17.310Z,11.43
2023-04-10T08:57:57.986Z,11.75
2023-04-10T09:00:40.052Z,13.32
2023-04-10T09:03:21.650Z,12.98
2023-04-10T09:05:54.958Z,12.85
2023-04-10T09:08:27.086Z,11.38
2023-04-10T09:10:59.175Z,12.43
2023-04-10T09:13:44.121Z,11.10
2023-04-10T09:16:16.479Z,11.38
2023-04-10T09:18:51.581Z,12.00
2023-04-10T09:21:23.690Z,10.25
2023-04-10T09:24:02.145Z,9.00
2023-04-10T09:26:34.416Z,10.52
2023-04-10T09:29:08.108Z,9.85
2023-04-10T09:31:40.686Z,9.80
2023-04-10T09:34:19.391Z,7.63
2023-04-10T09:37:01.969Z,8.80
2023-04-10T09:39:38.637Z,8.93
2023-04-10T09:42:15.165Z,7.65
2023-04-10T09:44:47.231Z,8.57
2023-04-10T09:47:24.483Z,8.98
2023-04-10T09:50:00.909Z,8.55
2023-04-10T09:52:35.161Z,8.75
2023-04-10T09:55:08.924Z,8.25
2023-04-10T09:57:41.202Z,8.30
2023-04-10T10:00:14.854Z,7.40
2023-04-10T10:02:48.836Z,7.47
2023-04-10T10:05:23.073Z,8.15
2023-04-10T10:07:55.620Z,8.30
2023-04-10T10:10:27.799Z,7.57
2023-04-10T10:13:03.856Z,8.05
2023-04-10T10:15:58.742Z,7.80
2023-04-10T10:19:00.223Z,7.35
2023-04-10T10:21:34.470Z,7.55
2023-04-10T10:24:10.067Z,6.82
2023-04-10T10:26:44.497Z,7.07
2023-04-10T10:29:18.821Z,6.82
2023-04-10T10:31:51.253Z,6.07
2023-04-10T10:34:23.623Z,6.50
2023-04-10T10:36:55.672Z,6.40
2023-04-10T10:40:02.406Z,18.52
2023-04-10T10:42:43.409Z,7.93
2023-04-10T10:45:27.163Z,6.72
2023-04-10T10:47:59.620Z,6.57
2023-04-10T10:50:52.589Z,7.15
2023-04-10T10:53:35.346Z,6.18
2023-04-10T10:56:19.853Z,7.72
2023-04-10T10:58:56.139Z,7.88
2023-04-10T11:01:28.835Z,6.68
2023-04-10T11:04:01.094Z,6.43
2023-04-10T11:06:52.676Z,6.90
2023-04-10T11:09:51.599Z,6.78
2023-04-10T11:12:26.091Z,7.00
2023-04-10T11:15:04.703Z,9.02
2023-04-10T11:17:54.612Z,7.95
2023-04-10T11:23:13.304Z,7.10
2023-04-10T11:25:55.953Z,7.32
2023-04-10T11:28:33.924Z,7.32
2023-04-10T11:31:22.784Z,6.40
2023-04-10T11:33:57.806Z,6.55
2023-04-10T11:36:30.791Z,8.40
2023-04-10T11:39:09.208Z,7.07
2023-04-10T11:41:46.699Z,6.75
2023-04-10T11:44:28.034Z,6.90
2023-04-10T11:47:00.239Z,6.97
2023-04-10T11:49:34.803Z,6.45
2023-04-10T11:52:07.328Z,6.60
2023-04-10T11:54:49.256Z,6.60
2023-04-10T11:57:21.675Z,6.78
2023-04-10T11:59:53.742Z,7.35
2023-04-10T12:02:26.157Z,5.97
2023-04-10T12:04:59.576Z,6.43
2023-04-10T12:07:33.047Z,6.72
2023-04-10T12:10:06.392Z,6.57
2023-04-10T12:12:38.581Z,6.50
2023-04-10T12:15:30.326Z,6.05
2023-04-10T12:18:02.917Z,6.63
2023-04-10T12:20:35.081Z,6.13
2023-04-10T12:23:07.266Z,5.97
2023-04-10T12:25:40.806Z,5.13
2023-04-10T12:28:21.739Z,5.72
2023-04-10T12:30:55.368Z,5.72
2023-04-10T12:33:27.545Z,5.60
2023-04-10T12:36:00.093Z,5.45
2023-04-10T12:38:50.532Z,5.60
2023-04-10T12:41:28.846Z,5.45
2023-04-10T12:44:13.745Z,4.97
2023-04-10T12:46:46.306Z,5.82
2023-04-10T12:49:19.092Z,5.53
2023-04-10T12:51:52.737Z,5.97
2023-04-10T12:54:37.246Z,4.90
2023-04-10T12:57:09.446Z,5.50
2023-04-10T12:59:45.009Z,5.75
2023-04-10T13:02:18.998Z,5.90
2023-04-10T13:04:51.588Z,5.45
2023-04-10T13:07:23.736Z,5.03
2023-04-10T13:09:55.894Z,5.15
2023-04-10T13:12:30.115Z,5.25
2023-04-10T13:15:03.063Z,5.50
2023-04-10T13:17:35.504Z,5.05
2023-04-10T13:20:09.993Z,5.38
2023-04-10T13:22:42.130Z,4.93
2023-04-10T13:25:14.248Z,4.88
2023-04-10T13:27:46.319Z,4.38
2023-04-10T13:30:18.432Z,4.68
2023-04-10T13:32:50.522Z,4.78
2023-04-10T13:35:22.748Z,4.43
2023-04-10T13:37:54.810Z,4.22
2023-04-10T13:40:27.271Z,4.50
2023-04-10T13:42:59.561Z,4.60
2023-04-10T13:45:31.664Z,4.32
2023-04-10T13:48:04.246Z,4.40
2023-04-10T13:50:36.455Z,4.57
2023-04-10T13:53:10.434Z,4.50
2023-04-10T13:55:44.008Z,4.32
2023-04-10T13:58:16.212Z,4.28
2023-04-10T14:00:48.295Z,3.67
2023-04-10T14:03:20.522Z,3.72
2023-04-10T14:05:53.375Z,5.05
2023-04-10T14:08:25.520Z,4.70
2023-04-10T14:10:57.685Z,4.03
2023-04-10T14:13:30.613Z,4.00
2023-04-10T14:16:04.379Z,3.83
2023-04-10T14:18:37.525Z,4.07
2023-04-10T14:21:10.279Z,3.28
2023-04-10T14:23:43.171Z,3.60
2023-04-10T14:26:15.531Z,4.05
2023-04-10T14:28:47.598Z,3.65
2023-04-10T14:31:20.652Z,3.70
2023-04-10T14:33:52.935Z,3.25
2023-04-10T14:36:25.695Z,3.63
2023-04-10T14:38:57.720Z,3.85
2023-04-10T14:41:29.978Z,3.63
2023-04-10T14:44:03.306Z,4.13
2023-04-10T14:46:35.481Z,3.75
2023-04-10T14:49:07.548Z,4.35
2023-04-10T14:51:39.668Z,3.90
2023-04-10T14:54:11.851Z,3.97
2023-04-10T14:56:44.381Z,4.22
2023-04-10T15:02:03.349Z,4.43
2023-04-10T15:04:36.220Z,4.53
2023-04-10T15:07:08.380Z,4.13
2023-04-10T15:09:41.085Z,3.95
2023-04-10T15:12:13.198Z,4.25
2023-04-10T15:14:45.298Z,4.40
2023-04-10T15:17:17.567Z,4.03
2023-04-10T15:19:49.680Z,4.20
2023-04-10T15:22:22.011Z,5.22
2023-04-10T15:24:54.082Z,3.83
2023-04-10T15:27:29.013Z,4.88
2023-04-10T15:30:01.342Z,4.25
2023-04-10T15:32:38.010Z,3.83
2023-04-10T15:35:10.391Z,4.18
2023-04-10T15:37:42.649Z,4.35
2023-04-10T15:40:14.746Z,4.43
2023-04-10T15:42:46.821Z,3.65
2023-04-10T15:45:19.025Z,3.97
2023-04-10T15:47:51.180Z,4.07
2023-04-10T15:50:23.273Z,4.18
2023-04-10T15:52:55.381Z,3.92
2023-04-10T15:55:27.537Z,4.10
2023-04-10T15:58:02.251Z,3.85
2023-04-10T16:00:34.776Z,3.67
2023-04-10T16:03:07.138Z,3.60
2023-04-10T16:05:41.460Z,3.85
2023-04-10T16:08:13.593Z,4.20
2023-04-10T16:10:47.556Z,3.10
2023-04-10T16:13:19.697Z,3.92
2023-04-10T16:15:52.309Z,3.92
2023-04-10T16:18:24.612Z,4.05
2023-04-10T16:20:56.686Z,3.80
2023-04-10T16:23:28.811Z,3.42
2023-04-10T16:26:01.037Z,3.60
2023-04-10T16:28:33.173Z,3.90
2023-04-10T16:31:05.729Z,4.35
2023-04-10T16:33:37.813Z,4.40
2023-04-10T16:36:10.190Z,3.63
2023-04-10T16:38:42.375Z,3.60
2023-04-10T16:41:21.071Z,3.78
2023-04-10T16:43:53.326Z,3.55
2023-04-10T16:46:26.965Z,3.40
2023-04-10T16:48:59.098Z,3.40
2023-04-10T16:51:31.375Z,3.40
2023-04-10T16:54:03.963Z,3.13
2023-04-10T16:56:36.069Z,3.00
2023-04-10T16:59:08.206Z,3.15
2023-04-10T17:01:40.399Z,3.33
2023-04-10T17:04:13.608Z,3.50
2023-04-10T17:06:45.694Z,3.53
2023-04-10T17:09:17.960Z,3.30
2023-04-10T17:11:50.276Z,3.00
2023-04-10T17:14:22.387Z,3.65
2023-04-10T17:16:54.533Z,3.30
2023-04-10T17:19:26.619Z,3.33
2023-04-10T17:21:58.790Z,3.47
2023-04-10T17:24:31.765Z,3.55
2023-04-10T17:27:03.934Z,3.08
2023-04-10T17:29:39.976Z,3.70
2023-04-10T17:32:12.080Z,3.90
2023-04-10T17:34:44.480Z,3.75
2023-04-10T17:37:16.626Z,3.33
2023-04-10T17:39:51.899Z,2.70
2023-04-10T17:42:25.924Z,2.33
2023-04-10T17:44:58.380Z,2.65
2023-04-10T17:47:30.580Z,2.97
2023-04-10T17:50:04.228Z,2.22
2023-04-10T17:52:52.541Z,2.00
2023-04-10T17:55:24.944Z,2.50
2023-04-10T17:58:00.036Z,2.58
2023-04-10T18:00:35.446Z,2.90
2023-04-10T18:03:07.773Z,2.83
2023-04-10T18:05:40.088Z,2.20
2023-04-10T18:08:14.385Z,3.33
2023-04-10T18:10:46.796Z,3.22
2023-04-10T18:13:19.028Z,3.25
2023-04-10T18:15:51.303Z,3.05
2023-04-10T18:18:54.989Z,3.90
2023-04-10T18:21:28.165Z,4.80
2023-04-10T18:24:00.597Z,3.40
2023-04-10T18:26:35.438Z,3.88
2023-04-10T18:29:08.006Z,4.22
2023-04-10T18:31:40.222Z,3.53
2023-04-10T18:34:12.678Z,3.03
2023-04-10T18:36:44.989Z,2.85
2023-04-10T18:39:17.076Z,3.03
2023-04-10T18:41:49.233Z,3.20
2023-04-10T18:44:21.294Z,3.60
2023-04-10T18:47:22.687Z,3.38
2023-04-10T18:50:23.646Z,2.65
2023-04-10T18:52:56.186Z,2.67
2023-04-10T18:55:28.452Z,3.70
2023-04-10T18:58:01.038Z,3.33
2023-04-10T19:00:34.361Z,3.70
2023-04-10T19:03:06.764Z,3.05
2023-04-10T19:05:49.508Z,3.30
2023-04-10T19:08:21.779Z,3.28
2023-04-10T19:10:54.017Z,3.60
2023-04-10T19:57:30.483Z,3.17
2023-04-10T20:22:27.195Z,5.35
2023-04-10T20:29:22.687Z,5.32
2023-04-10T20:56:47.979Z,5.07
2023-04-10T21:02:44.122Z,5.45
2023-04-10T21:05:31.781Z,5.80
2023-04-10T21:15:59.276Z,4.93
2023-04-10T21:29:39.482Z,4.13
2023-04-10T21:32:11.897Z,4.50
2023-04-10T21:34:44.338Z,3.65
2023-04-10T21:37:19.543Z,4.93
2023-04-10T21:39:52.017Z,6.53
2023-04-10T21:42:24.472Z,7.43
2023-04-10T21:44:58.102Z,6.15
2023-04-10T21:47:30.852Z,4.60
2023-04-10T21:50:03.193Z,5.45
2023-04-10T21:52:35.650Z,4.55
2023-04-10T21:55:08.941Z,5.60
2023-04-10T21:57:41.300Z,4.70
2023-04-10T22:00:14.737Z,5.00
2023-04-10T22:02:47.241Z,5.40
2023-04-10T22:05:19.735Z,4.65
2023-04-10T22:07:52.590Z,7.43
2023-04-10T22:10:25.042Z,8.18
2023-04-10T22:12:57.510Z,5.88
2023-04-10T22:15:29.709Z,4.80
2023-04-10T22:18:01.997Z,5.15
2023-04-10T22:20:34.588Z,4.78
2023-04-10T22:23:07.023Z,4.57
2023-04-10T22:25:39.304Z,5.10
2023-04-10T22:28:11.651Z,5.28
2023-04-10T22:30:43.959Z,4.93
2023-04-10T22:33:16.408Z,5.07
2023-04-10T22:35:49.391Z,4.97
2023-04-10T22:38:21.672Z,5.18
2023-04-10T22:40:55.511Z,6.40
2023-04-10T22:43:28.022Z,4.25
2023-04-10T22:46:00.786Z,5.50
2023-04-10T22:48:36.418Z,5.43
2023-04-10T22:51:12.995Z,4.93
2023-04-10T22:53:45.265Z,5.05
2023-04-10T22:56:18.821Z,4.32
2023-04-10T22:58:51.229Z,4.22
2023-04-10T23:01:23.563Z,5.70
2023-04-10T23:03:55.909Z,3.90
2023-04-10T23:06:28.269Z,4.28
2023-04-10T23:09:00.601Z,4.20
2023-04-10T23:11:33.443Z,3.97
2023-04-10T23:14:05.809Z,3.80
2023-04-10T23:16:38.344Z,3.65
2023-04-10T23:19:10.650Z,3.85
2023-04-10T23:21:42.850Z,3.50
2023-04-10T23:24:15.170Z,3.42
2023-04-10T23:26:47.515Z,4.05
2023-04-10T23:29:19.972Z,4.30
2023-04-10T23:31:52.171Z,4.35
2023-04-10T23:34:24.439Z,3.60
2023-04-10T23:36:57.214Z,4.45
2023-04-10T23:39:29.648Z,4.13
2023-04-10T23:42:02.479Z,4.10
2023-04-10T23:44:34.765Z,4.00
2023-04-10T23:47:07.361Z,3.53
2023-04-10T23:49:39.909Z,3.88
2023-04-10T23:52:12.204Z,4.95
2023-04-10T23:54:44.578Z,4.30
2023-04-10T23:57:17.093Z,4.47
2023-04-10T23:59:49.783Z,4.45
